Weather at Des Moines International Airport

Public forecast

Using degrees Fahrenheit for public forecast. Weather courtesy of forecast.io.

Current aviation weather report (METAR) for Des Moines International Airport

2024/05/25 04:54 (retrieved 6 minutes ago)

KDSM 250454Z 31003KT 10SM CLR 15/08 A2988 RMK AO2 SLP114 T01500083

Closest aviation forecast (TAF) to Des Moines International Airport

Forecast is more than 6 hours old.

Closest forecast is Marshall Army Air Field, 205.8 nm (381.1 km) SW.

2024/05/24 18:54 Ammendment (retrieved 10 hours ago)

TAF GVAC 241700Z 2418/2524 05016KT 9999 FEW014 TAF AMD KFRI 241650Z 2416/2518 32015G25KT 9999 SKC QNH2963INS BECMG 2421/2422 34010G15KT 9999 SKC QNH2977INS BECMG 2423/2424 36007KT 9999 SKC QNH2976INS BECMG 2514/2515 14012G18KT 9999 SKC QNH2975INS TX25/2421Z TN12/2509Z LAST NO MADS AFT 2421 NEXT 2812